sensor_id;sensor_type;location;lat;lon;timestamp;P1;durP1;ratioP1;P2;durP2;ratioP2
36827;SDS011;22766;48.042;11.192;2024-03-02T00:00:27;44.00;;;7.00;;
36827;SDS011;22766;48.042;11.192;2024-03-02T00:02:54;31.15;;;6.97;;
36827;SDS011;22766;48.042;11.192;2024-03-02T00:05:21;16.10;;;5.97;;
36827;SDS011;22766;48.042;11.192;2024-03-02T00:07:57;81.47;;;7.78;;
36827;SDS011;22766;48.042;11.192;2024-03-02T00:10:25;13.77;;;5.93;;
36827;SDS011;22766;48.042;11.192;2024-03-02T00:12:58;28.08;;;7.22;;
36827;SDS011;22766;48.042;11.192;2024-03-02T00:18:16;20.33;;;6.53;;
36827;SDS011;22766;48.042;11.192;2024-03-02T00:20:45;12.20;;;6.72;;
36827;SDS011;22766;48.042;11.192;2024-03-02T00:23:14;10.98;;;6.13;;
36827;SDS011;22766;48.042;11.192;2024-03-02T00:25:43;10.80;;;6.05;;
36827;SDS011;22766;48.042;11.192;2024-03-02T00:28:20;9.60;;;5.53;;
36827;SDS011;22766;48.042;11.192;2024-03-02T00:30:55;11.27;;;5.50;;
36827;SDS011;22766;48.042;11.192;2024-03-02T00:33:25;8.55;;;4.70;;
36827;SDS011;22766;48.042;11.192;2024-03-02T00:35:53;8.65;;;5.30;;
36827;SDS011;22766;48.042;11.192;2024-03-02T00:38:20;8.23;;;4.82;;
36827;SDS011;22766;48.042;11.192;2024-03-02T00:40:47;8.32;;;4.80;;
36827;SDS011;22766;48.042;11.192;2024-03-02T00:45:47;7.70;;;4.70;;
36827;SDS011;22766;48.042;11.192;2024-03-02T00:48:15;7.15;;;4.80;;
36827;SDS011;22766;48.042;11.192;2024-03-02T00:50:43;7.45;;;4.95;;
36827;SDS011;22766;48.042;11.192;2024-03-02T00:53:11;7.30;;;4.30;;
36827;SDS011;22766;48.042;11.192;2024-03-02T00:55:39;6.88;;;4.20;;
36827;SDS011;22766;48.042;11.192;2024-03-02T00:58:10;6.90;;;4.38;;
36827;SDS011;22766;48.042;11.192;2024-03-02T01:00:37;7.45;;;4.68;;
36827;SDS011;22766;48.042;11.192;2024-03-02T01:03:04;8.40;;;4.55;;
36827;SDS011;22766;48.042;11.192;2024-03-02T01:05:31;6.47;;;3.90;;
36827;SDS011;22766;48.042;11.192;2024-03-02T01:07:57;6.63;;;4.13;;
36827;SDS011;22766;48.042;11.192;2024-03-02T01:10:24;6.05;;;4.05;;
36827;SDS011;22766;48.042;11.192;2024-03-02T01:12:52;4.88;;;3.28;;
36827;SDS011;22766;48.042;11.192;2024-03-02T01:15:19;5.68;;;3.97;;
36827;SDS011;22766;48.042;11.192;2024-03-02T01:17:46;5.32;;;3.80;;
36827;SDS011;22766;48.042;11.192;2024-03-02T01:20:12;6.03;;;3.90;;
36827;SDS011;22766;48.042;11.192;2024-03-02T01:22:39;5.70;;;3.83;;
36827;SDS011;22766;48.042;11.192;2024-03-02T01:25:06;7.57;;;4.20;;
36827;SDS011;22766;48.042;11.192;2024-03-02T01:27:35;6.97;;;4.38;;
36827;SDS011;22766;48.042;11.192;2024-03-02T01:30:02;7.13;;;4.05;;
36827;SDS011;22766;48.042;11.192;2024-03-02T01:32:28;6.07;;;3.85;;
36827;SDS011;22766;48.042;11.192;2024-03-02T01:34:56;8.27;;;3.95;;
36827;SDS011;22766;48.042;11.192;2024-03-02T01:37:22;7.40;;;3.75;;
36827;SDS011;22766;48.042;11.192;2024-03-02T01:39:49;5.80;;;3.42;;
36827;SDS011;22766;48.042;11.192;2024-03-02T01:42:16;6.60;;;3.80;;
36827;SDS011;22766;48.042;11.192;2024-03-02T01:44:43;7.57;;;4.53;;
36827;SDS011;22766;48.042;11.192;2024-03-02T01:47:10;5.50;;;3.78;;
36827;SDS011;22766;48.042;11.192;2024-03-02T01:49:37;6.45;;;3.58;;
36827;SDS011;22766;48.042;11.192;2024-03-02T01:52:05;5.57;;;3.65;;
36827;SDS011;22766;48.042;11.192;2024-03-02T01:54:32;5.70;;;3.80;;
36827;SDS011;22766;48.042;11.192;2024-03-02T01:56:59;6.28;;;3.72;;
36827;SDS011;22766;48.042;11.192;2024-03-02T01:59:26;5.53;;;3.65;;
36827;SDS011;22766;48.042;11.192;2024-03-02T02:01:53;6.30;;;3.92;;
36827;SDS011;22766;48.042;11.192;2024-03-02T02:04:20;6.65;;;3.63;;
36827;SDS011;22766;48.042;11.192;2024-03-02T02:06:53;6.90;;;3.75;;
36827;SDS011;22766;48.042;11.192;2024-03-02T02:09:20;6.88;;;4.45;;
36827;SDS011;22766;48.042;11.192;2024-03-02T02:11:47;6.75;;;3.92;;
36827;SDS011;22766;48.042;11.192;2024-03-02T02:14:14;6.85;;;4.10;;
36827;SDS011;22766;48.042;11.192;2024-03-02T02:16:41;5.63;;;3.58;;
36827;SDS011;22766;48.042;11.192;2024-03-02T02:19:08;6.80;;;4.13;;
36827;SDS011;22766;48.042;11.192;2024-03-02T02:21:36;6.13;;;4.10;;
36827;SDS011;22766;48.042;11.192;2024-03-02T02:24:03;6.20;;;3.63;;
36827;SDS011;22766;48.042;11.192;2024-03-02T02:26:30;6.40;;;3.75;;
36827;SDS011;22766;48.042;11.192;2024-03-02T02:28:57;7.13;;;3.85;;
36827;SDS011;22766;48.042;11.192;2024-03-02T02:31:23;6.03;;;3.75;;
36827;SDS011;22766;48.042;11.192;2024-03-02T02:33:50;7.65;;;4.15;;
36827;SDS011;22766;48.042;11.192;2024-03-02T02:36:17;7.80;;;4.30;;
36827;SDS011;22766;48.042;11.192;2024-03-02T02:38:45;8.02;;;4.20;;
36827;SDS011;22766;48.042;11.192;2024-03-02T02:41:14;7.13;;;4.30;;
36827;SDS011;22766;48.042;11.192;2024-03-02T02:43:41;5.38;;;3.55;;
36827;SDS011;22766;48.042;11.192;2024-03-02T02:46:08;6.68;;;4.03;;
36827;SDS011;22766;48.042;11.192;2024-03-02T02:48:35;5.97;;;3.72;;
36827;SDS011;22766;48.042;11.192;2024-03-02T02:51:02;7.05;;;4.28;;
36827;SDS011;22766;48.042;11.192;2024-03-02T02:53:29;5.55;;;3.85;;
36827;SDS011;22766;48.042;11.192;2024-03-02T02:55:56;5.95;;;3.65;;
36827;SDS011;22766;48.042;11.192;2024-03-02T02:58:22;6.70;;;4.50;;
36827;SDS011;22766;48.042;11.192;2024-03-02T03:00:50;5.22;;;3.58;;
36827;SDS011;22766;48.042;11.192;2024-03-02T03:03:16;6.50;;;4.22;;
36827;SDS011;22766;48.042;11.192;2024-03-02T03:05:43;6.88;;;4.50;;
36827;SDS011;22766;48.042;11.192;2024-03-02T03:08:10;5.63;;;3.83;;
36827;SDS011;22766;48.042;11.192;2024-03-02T03:10:37;7.72;;;4.95;;
36827;SDS011;22766;48.042;11.192;2024-03-02T03:13:03;9.20;;;5.20;;
36827;SDS011;22766;48.042;11.192;2024-03-02T03:15:30;10.38;;;5.35;;
36827;SDS011;22766;48.042;11.192;2024-03-02T03:17:57;9.23;;;5.38;;
36827;SDS011;22766;48.042;11.192;2024-03-02T03:20:24;10.05;;;6.25;;
36827;SDS011;22766;48.042;11.192;2024-03-02T03:22:51;8.48;;;5.10;;
36827;SDS011;22766;48.042;11.192;2024-03-02T03:25:17;9.70;;;5.18;;
36827;SDS011;22766;48.042;11.192;2024-03-02T03:27:44;9.07;;;5.00;;
36827;SDS011;22766;48.042;11.192;2024-03-02T03:30:12;9.98;;;5.53;;
36827;SDS011;22766;48.042;11.192;2024-03-02T03:32:39;9.55;;;5.80;;
36827;SDS011;22766;48.042;11.192;2024-03-02T03:35:07;10.50;;;5.50;;
36827;SDS011;22766;48.042;11.192;2024-03-02T03:37:34;9.82;;;5.28;;
36827;SDS011;22766;48.042;11.192;2024-03-02T03:40:04;9.70;;;5.28;;
36827;SDS011;22766;48.042;11.192;2024-03-02T03:42:37;7.63;;;4.38;;
36827;SDS011;22766;48.042;11.192;2024-03-02T03:45:06;10.27;;;5.82;;
36827;SDS011;22766;48.042;11.192;2024-03-02T03:47:33;7.50;;;4.72;;
36827;SDS011;22766;48.042;11.192;2024-03-02T03:50:01;8.40;;;4.90;;
36827;SDS011;22766;48.042;11.192;2024-03-02T03:52:31;8.32;;;5.03;;
36827;SDS011;22766;48.042;11.192;2024-03-02T03:54:59;6.60;;;4.20;;
36827;SDS011;22766;48.042;11.192;2024-03-02T03:57:27;7.43;;;4.63;;
36827;SDS011;22766;48.042;11.192;2024-03-02T03:59:54;10.07;;;5.30;;
36827;SDS011;22766;48.042;11.192;2024-03-02T04:02:20;8.65;;;5.18;;
36827;SDS011;22766;48.042;11.192;2024-03-02T04:04:47;9.68;;;4.80;;
36827;SDS011;22766;48.042;11.192;2024-03-02T04:07:14;7.35;;;5.05;;
36827;SDS011;22766;48.042;11.192;2024-03-02T04:09:41;8.35;;;4.82;;
36827;SDS011;22766;48.042;11.192;2024-03-02T04:12:08;8.25;;;4.95;;
36827;SDS011;22766;48.042;11.192;2024-03-02T04:14:35;8.32;;;4.82;;
36827;SDS011;22766;48.042;11.192;2024-03-02T04:17:01;8.23;;;5.32;;
36827;SDS011;22766;48.042;11.192;2024-03-02T04:19:28;6.97;;;4.25;;
36827;SDS011;22766;48.042;11.192;2024-03-02T04:21:55;9.25;;;5.60;;
36827;SDS011;22766;48.042;11.192;2024-03-02T04:24:22;7.70;;;4.43;;
36827;SDS011;22766;48.042;11.192;2024-03-02T04:26:49;7.32;;;4.75;;
36827;SDS011;22766;48.042;11.192;2024-03-02T04:29:16;7.65;;;4.82;;
36827;SDS011;22766;48.042;11.192;2024-03-02T04:31:43;10.70;;;4.50;;
36827;SDS011;22766;48.042;11.192;2024-03-02T04:34:09;7.28;;;4.70;;
36827;SDS011;22766;48.042;11.192;2024-03-02T04:36:37;7.05;;;4.60;;
36827;SDS011;22766;48.042;11.192;2024-03-02T04:39:03;10.80;;;5.22;;
36827;SDS011;22766;48.042;11.192;2024-03-02T04:41:31;6.53;;;4.28;;
36827;SDS011;22766;48.042;11.192;2024-03-02T04:43:57;7.00;;;4.55;;
36827;SDS011;22766;48.042;11.192;2024-03-02T04:46:24;6.78;;;4.45;;
36827;SDS011;22766;48.042;11.192;2024-03-02T04:48:51;6.93;;;3.70;;
36827;SDS011;22766;48.042;11.192;2024-03-02T04:51:22;6.85;;;4.88;;
36827;SDS011;22766;48.042;11.192;2024-03-02T04:53:49;6.07;;;4.22;;
36827;SDS011;22766;48.042;11.192;2024-03-02T04:56:16;7.13;;;4.22;;
36827;SDS011;22766;48.042;11.192;2024-03-02T04:58:58;5.90;;;3.42;;
36827;SDS011;22766;48.042;11.192;2024-03-02T05:01:24;6.80;;;4.22;;
36827;SDS011;22766;48.042;11.192;2024-03-02T05:03:51;6.65;;;4.20;;
36827;SDS011;22766;48.042;11.192;2024-03-02T05:06:18;7.70;;;4.75;;
36827;SDS011;22766;48.042;11.192;2024-03-02T05:08:45;6.00;;;4.00;;
36827;SDS011;22766;48.042;11.192;2024-03-02T05:11:12;7.80;;;5.15;;
36827;SDS011;22766;48.042;11.192;2024-03-02T05:13:57;7.95;;;4.80;;
36827;SDS011;22766;48.042;11.192;2024-03-02T05:16:24;6.55;;;4.57;;
36827;SDS011;22766;48.042;11.192;2024-03-02T05:18:51;8.13;;;5.00;;
36827;SDS011;22766;48.042;11.192;2024-03-02T05:21:18;8.32;;;4.60;;
36827;SDS011;22766;48.042;11.192;2024-03-02T05:23:45;8.55;;;5.05;;
36827;SDS011;22766;48.042;11.192;2024-03-02T05:26:12;8.27;;;4.93;;
36827;SDS011;22766;48.042;11.192;2024-03-02T05:28:41;7.85;;;5.35;;
36827;SDS011;22766;48.042;11.192;2024-03-02T05:31:11;8.10;;;4.50;;
36827;SDS011;22766;48.042;11.192;2024-03-02T05:33:42;9.00;;;4.97;;
36827;SDS011;22766;48.042;11.192;2024-03-02T05:36:09;10.13;;;5.85;;
36827;SDS011;22766;48.042;11.192;2024-03-02T05:38:37;8.93;;;5.10;;
36827;SDS011;22766;48.042;11.192;2024-03-02T05:41:04;9.70;;;5.47;;
36827;SDS011;22766;48.042;11.192;2024-03-02T05:43:31;11.82;;;5.63;;
36827;SDS011;22766;48.042;11.192;2024-03-02T05:45:58;12.43;;;5.75;;
36827;SDS011;22766;48.042;11.192;2024-03-02T05:48:25;12.55;;;6.72;;
36827;SDS011;22766;48.042;11.192;2024-03-02T05:50:52;14.93;;;7.03;;
36827;SDS011;22766;48.042;11.192;2024-03-02T05:53:18;14.27;;;6.47;;
36827;SDS011;22766;48.042;11.192;2024-03-02T05:55:45;10.52;;;6.05;;
36827;SDS011;22766;48.042;11.192;2024-03-02T05:58:12;11.15;;;6.07;;
36827;SDS011;22766;48.042;11.192;2024-03-02T06:00:58;13.27;;;6.53;;
36827;SDS011;22766;48.042;11.192;2024-03-02T06:03:25;21.20;;;7.13;;
36827;SDS011;22766;48.042;11.192;2024-03-02T06:05:52;20.63;;;6.45;;
36827;SDS011;22766;48.042;11.192;2024-03-02T06:08:18;12.15;;;5.47;;
36827;SDS011;22766;48.042;11.192;2024-03-02T06:10:45;10.23;;;5.82;;
36827;SDS011;22766;48.042;11.192;2024-03-02T06:13:12;11.73;;;6.60;;
36827;SDS011;22766;48.042;11.192;2024-03-02T06:15:39;12.90;;;5.93;;
36827;SDS011;22766;48.042;11.192;2024-03-02T06:18:06;10.40;;;6.07;;
36827;SDS011;22766;48.042;11.192;2024-03-02T06:20:34;10.82;;;6.18;;
36827;SDS011;22766;48.042;11.192;2024-03-02T06:23:03;10.38;;;6.05;;
36827;SDS011;22766;48.042;11.192;2024-03-02T06:25:30;9.20;;;5.50;;
36827;SDS011;22766;48.042;11.192;2024-03-02T06:27:57;9.65;;;5.82;;
36827;SDS011;22766;48.042;11.192;2024-03-02T06:30:24;9.68;;;5.65;;
36827;SDS011;22766;48.042;11.192;2024-03-02T06:32:50;14.60;;;6.32;;
36827;SDS011;22766;48.042;11.192;2024-03-02T06:35:17;14.75;;;6.03;;
36827;SDS011;22766;48.042;11.192;2024-03-02T06:37:44;9.57;;;5.93;;
36827;SDS011;22766;48.042;11.192;2024-03-02T06:40:11;12.15;;;5.95;;
36827;SDS011;22766;48.042;11.192;2024-03-02T06:42:37;9.50;;;5.55;;
36827;SDS011;22766;48.042;11.192;2024-03-02T06:45:04;10.65;;;5.43;;
36827;SDS011;22766;48.042;11.192;2024-03-02T06:47:31;9.73;;;5.53;;
36827;SDS011;22766;48.042;11.192;2024-03-02T06:49:58;12.70;;;5.40;;
36827;SDS011;22766;48.042;11.192;2024-03-02T06:52:25;24.73;;;6.75;;
36827;SDS011;22766;48.042;11.192;2024-03-02T06:54:52;15.18;;;5.60;;
36827;SDS011;22766;48.042;11.192;2024-03-02T06:57:19;19.77;;;5.03;;
36827;SDS011;22766;48.042;11.192;2024-03-02T06:59:47;19.30;;;5.80;;
36827;SDS011;22766;48.042;11.192;2024-03-02T07:02:16;10.52;;;5.82;;
36827;SDS011;22766;48.042;11.192;2024-03-02T07:04:46;8.48;;;5.32;;
36827;SDS011;22766;48.042;11.192;2024-03-02T07:07:13;12.02;;;6.57;;
36827;SDS011;22766;48.042;11.192;2024-03-02T07:09:39;17.05;;;5.18;;
36827;SDS011;22766;48.042;11.192;2024-03-02T07:12:07;9.50;;;5.88;;
36827;SDS011;22766;48.042;11.192;2024-03-02T07:14:34;14.77;;;5.45;;
36827;SDS011;22766;48.042;11.192;2024-03-02T07:17:26;12.05;;;5.43;;
36827;SDS011;22766;48.042;11.192;2024-03-02T07:19:53;17.33;;;5.65;;
36827;SDS011;22766;48.042;11.192;2024-03-02T07:22:20;8.02;;;5.43;;
36827;SDS011;22766;48.042;11.192;2024-03-02T07:24:47;21.38;;;6.53;;
36827;SDS011;22766;48.042;11.192;2024-03-02T07:27:14;8.38;;;5.10;;
36827;SDS011;22766;48.042;11.192;2024-03-02T07:29:42;7.82;;;5.28;;
36827;SDS011;22766;48.042;11.192;2024-03-02T07:32:09;13.00;;;5.80;;
36827;SDS011;22766;48.042;11.192;2024-03-02T07:34:36;19.05;;;6.68;;
36827;SDS011;22766;48.042;11.192;2024-03-02T07:37:06;9.57;;;6.38;;
36827;SDS011;22766;48.042;11.192;2024-03-02T07:39:33;10.30;;;6.15;;
36827;SDS011;22766;48.042;11.192;2024-03-02T07:42:00;39.15;;;7.95;;
36827;SDS011;22766;48.042;11.192;2024-03-02T07:44:27;27.95;;;7.55;;
36827;SDS011;22766;48.042;11.192;2024-03-02T07:46:54;9.95;;;6.35;;
36827;SDS011;22766;48.042;11.192;2024-03-02T07:49:20;10.50;;;6.05;;
36827;SDS011;22766;48.042;11.192;2024-03-02T07:51:47;10.32;;;5.47;;
36827;SDS011;22766;48.042;11.192;2024-03-02T07:54:14;8.55;;;5.85;;
36827;SDS011;22766;48.042;11.192;2024-03-02T07:56:41;6.65;;;4.45;;
36827;SDS011;22766;48.042;11.192;2024-03-02T07:59:08;8.13;;;5.25;;
36827;SDS011;22766;48.042;11.192;2024-03-02T08:01:34;8.02;;;4.70;;
36827;SDS011;22766;48.042;11.192;2024-03-02T08:04:01;8.60;;;5.32;;
36827;SDS011;22766;48.042;11.192;2024-03-02T08:06:30;10.75;;;4.80;;
36827;SDS011;22766;48.042;11.192;2024-03-02T08:08:58;8.18;;;5.45;;
36827;SDS011;22766;48.042;11.192;2024-03-02T08:11:26;8.85;;;5.63;;
36827;SDS011;22766;48.042;11.192;2024-03-02T08:13:53;7.88;;;5.07;;
36827;SDS011;22766;48.042;11.192;2024-03-02T08:16:23;9.23;;;5.35;;
36827;SDS011;22766;48.042;11.192;2024-03-02T08:18:50;7.85;;;4.88;;
36827;SDS011;22766;48.042;11.192;2024-03-02T08:21:17;8.48;;;4.93;;
36827;SDS011;22766;48.042;11.192;2024-03-02T08:23:44;11.13;;;5.13;;
36827;SDS011;22766;48.042;11.192;2024-03-02T08:26:11;11.07;;;6.20;;
36827;SDS011;22766;48.042;11.192;2024-03-02T08:28:38;10.82;;;6.07;;
36827;SDS011;22766;48.042;11.192;2024-03-02T08:31:09;8.68;;;5.32;;
36827;SDS011;22766;48.042;11.192;2024-03-02T08:33:36;10.90;;;5.75;;
36827;SDS011;22766;48.042;11.192;2024-03-02T08:36:04;9.23;;;5.50;;
36827;SDS011;22766;48.042;11.192;2024-03-02T08:38:32;10.98;;;5.78;;
36827;SDS011;22766;48.042;11.192;2024-03-02T08:40:59;8.60;;;5.15;;
36827;SDS011;22766;48.042;11.192;2024-03-02T08:43:26;8.52;;;5.15;;
36827;SDS011;22766;48.042;11.192;2024-03-02T08:45:53;7.10;;;4.80;;
36827;SDS011;22766;48.042;11.192;2024-03-02T08:48:19;8.32;;;4.97;;
36827;SDS011;22766;48.042;11.192;2024-03-02T08:50:47;9.07;;;5.07;;
36827;SDS011;22766;48.042;11.192;2024-03-02T08:53:14;6.57;;;4.07;;
36827;SDS011;22766;48.042;11.192;2024-03-02T08:55:48;7.72;;;4.50;;
36827;SDS011;22766;48.042;11.192;2024-03-02T08:58:15;9.68;;;4.88;;
36827;SDS011;22766;48.042;11.192;2024-03-02T09:00:42;7.45;;;5.18;;
36827;SDS011;22766;48.042;11.192;2024-03-02T09:03:09;7.20;;;4.60;;
36827;SDS011;22766;48.042;11.192;2024-03-02T09:05:36;9.45;;;6.25;;
36827;SDS011;22766;48.042;11.192;2024-03-02T09:08:03;7.13;;;4.80;;
36827;SDS011;22766;48.042;11.192;2024-03-02T09:10:30;7.22;;;4.45;;
36827;SDS011;22766;48.042;11.192;2024-03-02T09:12:57;7.55;;;4.13;;
36827;SDS011;22766;48.042;11.192;2024-03-02T09:15:25;6.22;;;3.95;;
36827;SDS011;22766;48.042;11.192;2024-03-02T09:17:52;4.07;;;3.10;;
36827;SDS011;22766;48.042;11.192;2024-03-02T09:20:19;5.40;;;3.53;;
36827;SDS011;22766;48.042;11.192;2024-03-02T09:22:45;5.38;;;3.63;;
36827;SDS011;22766;48.042;11.192;2024-03-02T09:25:15;4.78;;;2.97;;
36827;SDS011;22766;48.042;11.192;2024-03-02T09:27:42;4.70;;;3.22;;
36827;SDS011;22766;48.042;11.192;2024-03-02T09:30:09;4.93;;;2.88;;
36827;SDS011;22766;48.042;11.192;2024-03-02T09:32:37;4.13;;;2.80;;
36827;SDS011;22766;48.042;11.192;2024-03-02T09:35:04;4.88;;;3.15;;
36827;SDS011;22766;48.042;11.192;2024-03-02T09:37:31;4.07;;;2.60;;
36827;SDS011;22766;48.042;11.192;2024-03-02T09:39:58;4.13;;;2.28;;
36827;SDS011;22766;48.042;11.192;2024-03-02T09:42:25;4.72;;;2.83;;
36827;SDS011;22766;48.042;11.192;2024-03-02T09:44:52;3.90;;;2.88;;
36827;SDS011;22766;48.042;11.192;2024-03-02T09:47:19;3.63;;;2.40;;
36827;SDS011;22766;48.042;11.192;2024-03-02T09:49:46;4.40;;;3.00;;
36827;SDS011;22766;48.042;11.192;2024-03-02T09:52:14;4.03;;;2.45;;
36827;SDS011;22766;48.042;11.192;2024-03-02T09:54:41;2.67;;;2.00;;
36827;SDS011;22766;48.042;11.192;2024-03-02T09:57:08;5.35;;;2.72;;
36827;SDS011;22766;48.042;11.192;2024-03-02T09:59:35;2.33;;;1.85;;
36827;SDS011;22766;48.042;11.192;2024-03-02T10:02:03;3.95;;;1.98;;
36827;SDS011;22766;48.042;11.192;2024-03-02T10:04:30;3.97;;;2.20;;
36827;SDS011;22766;48.042;11.192;2024-03-02T10:07:12;5.38;;;1.77;;
36827;SDS011;22766;48.042;11.192;2024-03-02T10:09:44;3.58;;;2.33;;
36827;SDS011;22766;48.042;11.192;2024-03-02T10:12:12;3.83;;;2.13;;
36827;SDS011;22766;48.042;11.192;2024-03-02T10:14:40;2.92;;;1.85;;
36827;SDS011;22766;48.042;11.192;2024-03-02T10:17:09;2.90;;;1.80;;
36827;SDS011;22766;48.042;11.192;2024-03-02T10:19:37;2.90;;;1.63;;
36827;SDS011;22766;48.042;11.192;2024-03-02T10:22:06;4.35;;;2.42;;
36827;SDS011;22766;48.042;11.192;2024-03-02T10:24:39;1.98;;;1.42;;
36827;SDS011;22766;48.042;11.192;2024-03-02T10:27:10;2.28;;;1.30;;
36827;SDS011;22766;48.042;11.192;2024-03-02T10:29:46;2.20;;;1.10;;
36827;SDS011;22766;48.042;11.192;2024-03-02T10:32:14;2.05;;;1.13;;
36827;SDS011;22766;48.042;11.192;2024-03-02T10:34:43;3.85;;;1.48;;
36827;SDS011;22766;48.042;11.192;2024-03-02T10:37:11;1.80;;;1.17;;
36827;SDS011;22766;48.042;11.192;2024-03-02T10:39:40;3.03;;;1.48;;
36827;SDS011;22766;48.042;11.192;2024-03-02T10:42:08;3.08;;;1.40;;
36827;SDS011;22766;48.042;11.192;2024-03-02T10:44:35;2.95;;;1.63;;
36827;SDS011;22766;48.042;11.192;2024-03-02T10:47:03;2.38;;;1.65;;
36827;SDS011;22766;48.042;11.192;2024-03-02T10:49:31;3.72;;;1.80;;
36827;SDS011;22766;48.042;11.192;2024-03-02T10:51:59;3.20;;;1.60;;
36827;SDS011;22766;48.042;11.192;2024-03-02T10:54:26;2.63;;;1.65;;
36827;SDS011;22766;48.042;11.192;2024-03-02T10:56:59;3.50;;;1.80;;
36827;SDS011;22766;48.042;11.192;2024-03-02T11:02:00;3.63;;;2.35;;
36827;SDS011;22766;48.042;11.192;2024-03-02T11:04:31;3.83;;;2.28;;
36827;SDS011;22766;48.042;11.192;2024-03-02T11:07:00;2.50;;;1.80;;
36827;SDS011;22766;48.042;11.192;2024-03-02T11:14:30;4.60;;;2.58;;
36827;SDS011;22766;48.042;11.192;2024-03-02T11:16:59;3.70;;;2.30;;
36827;SDS011;22766;48.042;11.192;2024-03-02T11:19:28;7.28;;;2.88;;
36827;SDS011;22766;48.042;11.192;2024-03-02T11:21:56;4.72;;;2.28;;
36827;SDS011;22766;48.042;11.192;2024-03-02T11:26:51;7.35;;;3.17;;
36827;SDS011;22766;48.042;11.192;2024-03-02T11:32:03;4.80;;;2.97;;
36827;SDS011;22766;48.042;11.192;2024-03-02T11:34:35;5.28;;;3.08;;
36827;SDS011;22766;48.042;11.192;2024-03-02T11:37:02;6.50;;;3.38;;
36827;SDS011;22766;48.042;11.192;2024-03-02T11:39:30;5.95;;;3.50;;
36827;SDS011;22766;48.042;11.192;2024-03-02T11:41:57;7.50;;;3.33;;
36827;SDS011;22766;48.042;11.192;2024-03-02T11:44:26;5.78;;;3.70;;
36827;SDS011;22766;48.042;11.192;2024-03-02T11:50:12;5.82;;;3.67;;
36827;SDS011;22766;48.042;11.192;2024-03-02T11:52:18;3.80;;;2.22;;
36827;SDS011;22766;48.042;11.192;2024-03-02T11:54:46;2.83;;;1.50;;
36827;SDS011;22766;48.042;11.192;2024-03-02T11:57:18;2.85;;;1.63;;
36827;SDS011;22766;48.042;11.192;2024-03-02T11:59:46;2.83;;;1.52;;
36827;SDS011;22766;48.042;11.192;2024-03-02T12:02:17;2.50;;;1.20;;
36827;SDS011;22766;48.042;11.192;2024-03-02T12:04:48;5.30;;;1.70;;
36827;SDS011;22766;48.042;11.192;2024-03-02T12:07:19;2.45;;;1.40;;
36827;SDS011;22766;48.042;11.192;2024-03-02T12:09:48;2.25;;;1.50;;
36827;SDS011;22766;48.042;11.192;2024-03-02T12:12:15;1.73;;;1.30;;
36827;SDS011;22766;48.042;11.192;2024-03-02T12:14:50;1.48;;;0.98;;
36827;SDS011;22766;48.042;11.192;2024-03-02T12:17:19;2.13;;;1.20;;
36827;SDS011;22766;48.042;11.192;2024-03-02T12:19:46;5.15;;;1.30;;
36827;SDS011;22766;48.042;11.192;2024-03-02T12:22:13;4.70;;;1.60;;
36827;SDS011;22766;48.042;11.192;2024-03-02T12:24:40;2.15;;;1.20;;
36827;SDS011;22766;48.042;11.192;2024-03-02T12:27:08;2.63;;;1.30;;
36827;SDS011;22766;48.042;11.192;2024-03-02T12:29:35;4.82;;;1.45;;
36827;SDS011;22766;48.042;11.192;2024-03-02T12:32:02;1.95;;;0.93;;
36827;SDS011;22766;48.042;11.192;2024-03-02T12:34:29;1.40;;;1.10;;
36827;SDS011;22766;48.042;11.192;2024-03-02T12:36:56;3.25;;;1.23;;
36827;SDS011;22766;48.042;11.192;2024-03-02T12:39:23;1.13;;;0.73;;
36827;SDS011;22766;48.042;11.192;2024-03-02T12:41:50;2.08;;;0.90;;
36827;SDS011;22766;48.042;11.192;2024-03-02T12:44:17;1.83;;;0.70;;
36827;SDS011;22766;48.042;11.192;2024-03-02T12:46:45;2.38;;;1.30;;
36827;SDS011;22766;48.042;11.192;2024-03-02T12:49:13;3.15;;;1.00;;
36827;SDS011;22766;48.042;11.192;2024-03-02T12:51:47;2.25;;;1.02;;
36827;SDS011;22766;48.042;11.192;2024-03-02T12:54:18;2.58;;;1.40;;
36827;SDS011;22766;48.042;11.192;2024-03-02T12:56:49;2.60;;;1.45;;
36827;SDS011;22766;48.042;11.192;2024-03-02T12:59:19;2.22;;;0.90;;
36827;SDS011;22766;48.042;11.192;2024-03-02T13:01:55;3.65;;;1.40;;
36827;SDS011;22766;48.042;11.192;2024-03-02T13:04:26;3.63;;;1.40;;
36827;SDS011;22766;48.042;11.192;2024-03-02T13:06:55;3.22;;;1.10;;
36827;SDS011;22766;48.042;11.192;2024-03-02T13:09:26;5.18;;;2.05;;
36827;SDS011;22766;48.042;11.192;2024-03-02T13:11:53;5.10;;;1.63;;
36827;SDS011;22766;48.042;11.192;2024-03-02T13:14:21;2.63;;;1.52;;
36827;SDS011;22766;48.042;11.192;2024-03-02T13:16:51;2.17;;;1.23;;
36827;SDS011;22766;48.042;11.192;2024-03-02T13:19:19;2.38;;;1.50;;
36827;SDS011;22766;48.042;11.192;2024-03-02T13:21:46;3.90;;;1.80;;
36827;SDS011;22766;48.042;11.192;2024-03-02T13:24:13;4.55;;;2.08;;
36827;SDS011;22766;48.042;11.192;2024-03-02T13:26:40;4.10;;;1.50;;
36827;SDS011;22766;48.042;11.192;2024-03-02T13:29:06;3.80;;;1.70;;
36827;SDS011;22766;48.042;11.192;2024-03-02T13:31:34;4.65;;;2.03;;
36827;SDS011;22766;48.042;11.192;2024-03-02T13:34:01;7.20;;;2.65;;
36827;SDS011;22766;48.042;11.192;2024-03-02T13:36:27;4.10;;;2.13;;
36827;SDS011;22766;48.042;11.192;2024-03-02T13:38:54;6.75;;;2.65;;
36827;SDS011;22766;48.042;11.192;2024-03-02T13:41:21;5.00;;;2.40;;
36827;SDS011;22766;48.042;11.192;2024-03-02T13:43:48;6.07;;;2.10;;
36827;SDS011;22766;48.042;11.192;2024-03-02T13:46:17;6.13;;;2.63;;
36827;SDS011;22766;48.042;11.192;2024-03-02T13:48:44;6.97;;;2.22;;
36827;SDS011;22766;48.042;11.192;2024-03-02T13:51:10;6.93;;;3.15;;
36827;SDS011;22766;48.042;11.192;2024-03-02T13:53:37;5.78;;;2.88;;
36827;SDS011;22766;48.042;11.192;2024-03-02T13:56:04;6.10;;;2.15;;
36827;SDS011;22766;48.042;11.192;2024-03-02T13:58:32;4.53;;;1.95;;
36827;SDS011;22766;48.042;11.192;2024-03-02T14:00:59;4.90;;;2.08;;
36827;SDS011;22766;48.042;11.192;2024-03-02T14:03:27;3.80;;;1.88;;
36827;SDS011;22766;48.042;11.192;2024-03-02T14:05:57;4.90;;;2.28;;
36827;SDS011;22766;48.042;11.192;2024-03-02T14:08:24;2.38;;;1.55;;
36827;SDS011;22766;48.042;11.192;2024-03-02T14:10:51;4.45;;;1.90;;
36827;SDS011;22766;48.042;11.192;2024-03-02T14:13:17;6.18;;;2.25;;
36827;SDS011;22766;48.042;11.192;2024-03-02T14:15:44;4.35;;;1.55;;
36827;SDS011;22766;48.042;11.192;2024-03-02T14:18:12;5.18;;;1.80;;
36827;SDS011;22766;48.042;11.192;2024-03-02T14:20:39;4.80;;;2.10;;
36827;SDS011;22766;48.042;11.192;2024-03-02T14:23:11;5.10;;;2.22;;
36827;SDS011;22766;48.042;11.192;2024-03-02T14:25:37;6.70;;;1.85;;
36827;SDS011;22766;48.042;11.192;2024-03-02T14:28:04;3.88;;;2.10;;
36827;SDS011;22766;48.042;11.192;2024-03-02T14:30:34;4.90;;;2.00;;
36827;SDS011;22766;48.042;11.192;2024-03-02T14:33:01;5.30;;;2.53;;
36827;SDS011;22766;48.042;11.192;2024-03-02T14:35:27;4.80;;;2.20;;
36827;SDS011;22766;48.042;11.192;2024-03-02T14:37:55;5.28;;;2.30;;
36827;SDS011;22766;48.042;11.192;2024-03-02T14:40:24;6.15;;;2.20;;
36827;SDS011;22766;48.042;11.192;2024-03-02T14:42:53;4.35;;;1.98;;
36827;SDS011;22766;48.042;11.192;2024-03-02T14:45:20;3.65;;;1.90;;
36827;SDS011;22766;48.042;11.192;2024-03-02T14:47:47;4.47;;;2.03;;
36827;SDS011;22766;48.042;11.192;2024-03-02T14:50:13;5.07;;;2.17;;
36827;SDS011;22766;48.042;11.192;2024-03-02T14:52:44;4.30;;;2.20;;
36827;SDS011;22766;48.042;11.192;2024-03-02T14:55:11;5.05;;;2.80;;
36827;SDS011;22766;48.042;11.192;2024-03-02T14:57:38;9.18;;;2.60;;